createdAt,value
2019-03-15T00:00:57.070Z,100832.74
2019-03-15T00:03:49.041Z,100832.58
2019-03-15T00:06:40.646Z,100828.80
2019-03-15T00:09:32.016Z,100826.25
2019-03-15T00:12:23.839Z,100829.01
2019-03-15T00:15:15.707Z,100823.85
2019-03-15T00:18:07.397Z,100826.47
2019-03-15T00:20:58.990Z,100823.59
2019-03-15T00:23:50.731Z,100826.50
2019-03-15T00:26:42.395Z,100829.63
2019-03-15T00:29:33.838Z,100832.03
2019-03-15T00:32:25.315Z,100830.89
2019-03-15T00:35:16.989Z,100828.60
2019-03-15T00:38:08.497Z,100826.42
2019-03-15T00:41:00.278Z,100827.98
2019-03-15T00:43:51.910Z,100819.63
2019-03-15T00:46:43.482Z,100815.45
2019-03-15T00:49:34.963Z,100814.16
2019-03-15T00:52:26.727Z,100817.95
2019-03-15T00:55:18.405Z,100819.02
2019-03-15T00:58:11.045Z,100826.09
2019-03-15T01:01:02.854Z,100823.95
2019-03-15T01:03:55.280Z,100822.61
2019-03-15T01:06:46.780Z,100822.83
2019-03-15T01:09:38.344Z,100827.41
2019-03-15T01:12:30.866Z,100814.81
2019-03-15T01:15:22.648Z,100808.08
2019-03-15T01:18:14.403Z,100811.79
2019-03-15T01:21:05.843Z,100810.98
2019-03-15T01:23:57.363Z,100814.59
2019-03-15T01:26:49.128Z,100807.14
2019-03-15T01:29:40.756Z,100810.80
2019-03-15T01:32:32.588Z,100800.31
2019-03-15T01:35:25.027Z,100796.80
2019-03-15T01:38:16.577Z,100799.74
2019-03-15T01:41:08.263Z,100789.70
2019-03-15T01:44:00.212Z,100781.58
2019-03-15T01:46:52.728Z,100779.55
2019-03-15T01:49:45.483Z,100776.75
2019-03-15T01:52:37.283Z,100777.82
2019-03-15T01:55:28.783Z,100767.44
2019-03-15T01:58:20.440Z,100758.34
2019-03-15T02:01:12.903Z,100755.23
2019-03-15T02:04:05.615Z,100746.10
2019-03-15T02:06:57.699Z,100732.47
2019-03-15T02:09:49.528Z,100723.38
2019-03-15T02:12:41.124Z,100715.76
2019-03-15T02:15:32.993Z,100705.17
2019-03-15T02:18:24.333Z,100691.97
2019-03-15T02:21:16.088Z,100682.91
2019-03-15T02:24:07.872Z,100670.08
2019-03-15T02:26:59.732Z,100661.36
2019-03-15T02:29:51.498Z,100656.88
2019-03-15T02:32:43.367Z,100646.23
2019-03-15T02:35:35.122Z,100648.17
2019-03-15T02:38:27.161Z,100643.64
2019-03-15T02:41:19.755Z,100634.65
2019-03-15T02:44:12.356Z,100628.97
2019-03-15T02:47:04.477Z,100628.42
2019-03-15T02:49:56.685Z,100614.89
2019-03-15T02:52:48.330Z,100610.64
2019-03-15T02:55:39.916Z,100596.34
2019-03-15T02:58:31.283Z,100589.65
2019-03-15T03:01:23.031Z,100591.61
2019-03-15T03:04:14.570Z,100582.31
2019-03-15T03:07:06.022Z,100573.38
2019-03-15T03:09:57.555Z,100567.23
2019-03-15T03:12:49.306Z,100559.98
2019-03-15T03:15:41.542Z,100557.94
2019-03-15T03:18:34.576Z,100556.52
2019-03-15T03:21:26.520Z,100549.23
2019-03-15T03:24:18.402Z,100546.16
2019-03-15T03:27:09.999Z,100539.11
2019-03-15T03:30:01.447Z,100536.15
2019-03-15T03:32:52.829Z,100534.14
2019-03-15T03:35:44.786Z,100521.22
2019-03-15T03:38:36.481Z,100516.50
2019-03-15T03:41:28.329Z,100514.34
2019-03-15T03:44:20.214Z,100511.31
2019-03-15T03:47:11.623Z,100506.55
2019-03-15T03:50:03.644Z,100498.56
2019-03-15T03:52:55.366Z,100495.27
2019-03-15T03:55:47.208Z,100489.58
2019-03-15T03:58:39.784Z,100482.19
2019-03-15T04:01:31.266Z,100479.84
2019-03-15T04:04:22.943Z,100475.42
2019-03-15T04:07:14.925Z,100465.92
2019-03-15T04:10:07.273Z,100467.94
2019-03-15T04:12:58.886Z,100468.62
2019-03-15T04:15:50.582Z,100464.23
2019-03-15T04:18:42.421Z,100468.89
2019-03-15T04:21:34.194Z,100471.46
2019-03-15T04:24:26.405Z,100461.20
2019-03-15T04:27:18.198Z,100467.95
2019-03-15T04:30:10.283Z,100468.88
2019-03-15T04:33:01.874Z,100463.45
2019-03-15T04:35:53.702Z,100456.27
2019-03-15T04:38:45.430Z,100462.75
2019-03-15T04:41:36.963Z,100461.27
2019-03-15T04:44:28.835Z,100456.25
2019-03-15T04:47:21.353Z,100452.27
2019-03-15T04:50:14.494Z,100447.56
2019-03-15T04:53:05.964Z,100454.67
2019-03-15T04:55:57.450Z,100450.47
2019-03-15T04:58:49.205Z,100451.95
2019-03-15T05:01:40.915Z,100454.83
2019-03-15T05:04:32.477Z,100458.28
2019-03-15T05:07:24.124Z,100460.52
2019-03-15T05:10:16.494Z,100461.64
2019-03-15T05:13:08.163Z,100453.94
2019-03-15T05:15:59.908Z,100455.84
2019-03-15T05:18:51.579Z,100458.45
2019-03-15T05:21:43.043Z,100456.85
2019-03-15T05:24:34.847Z,100470.34
2019-03-15T05:27:26.390Z,100457.92
2019-03-15T05:30:18.955Z,100456.96
2019-03-15T05:33:10.731Z,100457.28
2019-03-15T05:36:02.258Z,100461.00
2019-03-15T05:38:54.179Z,100462.53
2019-03-15T05:41:45.822Z,100457.86
2019-03-15T05:44:37.400Z,100446.71
2019-03-15T05:47:28.923Z,100460.36
2019-03-15T05:50:21.233Z,100466.52
2019-03-15T05:53:13.076Z,100481.70
2019-03-15T05:56:04.958Z,100479.27
2019-03-15T05:58:56.429Z,100483.98
2019-03-15T06:01:48.053Z,100485.80
2019-03-15T06:04:39.869Z,100495.56
2019-03-15T06:07:31.361Z,100501.63
2019-03-15T06:10:23.024Z,100493.76
2019-03-15T06:13:14.647Z,100494.52
2019-03-15T06:16:06.517Z,100497.85
2019-03-15T06:18:57.995Z,100492.44
2019-03-15T06:21:49.520Z,100494.35
2019-03-15T06:24:41.133Z,100509.13
2019-03-15T06:27:32.783Z,100504.48
2019-03-15T06:30:24.496Z,100502.03
2019-03-15T06:33:16.058Z,100512.94
2019-03-15T06:36:07.621Z,100495.41
2019-03-15T06:38:59.691Z,100491.84
2019-03-15T06:41:51.032Z,100501.14
2019-03-15T06:44:43.043Z,100505.66
2019-03-15T06:47:34.635Z,100509.22
2019-03-15T06:50:26.191Z,100513.69
2019-03-15T06:53:17.772Z,100517.28
2019-03-15T06:56:10.957Z,100515.22
2019-03-15T06:59:02.966Z,100507.77
2019-03-15T07:01:54.541Z,100497.20
2019-03-15T07:04:46.181Z,100494.98
2019-03-15T07:07:37.725Z,100490.78
2019-03-15T07:10:29.113Z,100497.32
2019-03-15T07:13:20.911Z,100488.13
2019-03-15T07:16:12.484Z,100488.39
2019-03-15T07:19:03.937Z,100501.23
2019-03-15T07:21:55.456Z,100484.13
2019-03-15T07:24:46.836Z,100496.09
2019-03-15T07:27:41.817Z,100499.59
2019-03-15T07:30:31.439Z,100513.82
2019-03-15T07:33:23.651Z,100522.31
2019-03-15T07:36:15.309Z,100517.27
2019-03-15T07:39:07.990Z,100518.48
2019-03-15T07:42:00.215Z,100509.35
2019-03-15T07:44:52.478Z,100505.78
2019-03-15T07:47:44.145Z,100517.84
2019-03-15T07:50:35.765Z,100528.45
2019-03-15T07:53:27.332Z,100532.45
2019-03-15T07:56:19.024Z,100531.45
2019-03-15T07:59:10.581Z,100540.62
2019-03-15T08:02:02.703Z,100548.85
2019-03-15T08:04:55.169Z,100547.38
2019-03-15T08:07:46.504Z,100553.86
2019-03-15T08:10:38.586Z,100554.16
2019-03-15T08:13:30.185Z,100560.06
2019-03-15T08:16:22.171Z,100563.04
2019-03-15T08:19:13.689Z,100564.46
2019-03-15T08:22:05.200Z,100570.11
2019-03-15T08:24:56.753Z,100578.77
2019-03-15T08:27:48.980Z,100577.17
2019-03-15T08:30:41.159Z,100595.24
2019-03-15T08:33:32.411Z,100589.61
2019-03-15T08:36:24.034Z,100581.62
2019-03-15T08:39:15.671Z,100575.72
2019-03-15T08:42:08.487Z,100581.88
2019-03-15T08:44:59.827Z,100585.27
2019-03-15T08:47:51.355Z,100588.77
2019-03-15T08:50:42.903Z,100597.44
2019-03-15T08:53:34.633Z,100606.31
2019-03-15T08:56:26.132Z,100599.49
2019-03-15T08:59:19.106Z,100610.47
2019-03-15T09:02:10.434Z,100603.52
2019-03-15T09:05:02.102Z,100587.23
2019-03-15T09:07:53.793Z,100598.38
2019-03-15T09:10:45.875Z,100603.02
2019-03-15T09:13:38.160Z,100595.69
2019-03-15T09:16:30.185Z,100593.41
2019-03-15T09:19:22.153Z,100600.98
2019-03-15T09:22:13.532Z,100607.19
2019-03-15T09:25:18.179Z,100601.94
2019-03-15T09:27:58.387Z,100606.55
2019-03-15T09:30:50.667Z,100610.02
2019-03-15T09:33:42.331Z,100610.22
2019-03-15T09:36:34.049Z,100614.38
2019-03-15T09:39:26.292Z,100622.48
2019-03-15T09:42:17.615Z,100624.41
2019-03-15T09:45:10.644Z,100621.72
2019-03-15T09:48:01.880Z,100631.48
2019-03-15T09:50:53.346Z,100630.79
2019-03-15T09:53:44.904Z,100637.63
2019-03-15T09:56:36.898Z,100626.95
2019-03-15T09:59:28.326Z,100633.82
2019-03-15T10:02:29.672Z,100645.62
2019-03-15T10:05:13.286Z,100643.26
2019-03-15T10:08:05.299Z,100637.89
2019-03-15T10:10:56.637Z,100646.07
2019-03-15T10:13:47.951Z,100640.34
2019-03-15T10:16:39.476Z,100643.78
2019-03-15T10:19:30.835Z,100658.56
2019-03-15T10:22:22.214Z,100652.14
2019-03-15T10:25:13.539Z,100656.25
2019-03-15T10:28:05.636Z,100648.62
2019-03-15T10:30:57.307Z,100659.39
2019-03-15T10:33:50.839Z,100662.59
2019-03-15T10:36:42.907Z,100668.03
2019-03-15T10:39:34.486Z,100673.02
2019-03-15T10:42:26.745Z,100668.63
2019-03-15T10:45:18.282Z,100671.20
2019-03-15T10:48:09.868Z,100673.98
2019-03-15T10:51:02.016Z,100686.09
2019-03-15T10:53:54.985Z,100698.36
2019-03-15T10:56:47.133Z,100696.72
2019-03-15T10:59:38.550Z,100696.91
2019-03-15T11:02:29.970Z,100691.25
2019-03-15T11:05:22.198Z,100694.02
2019-03-15T11:08:13.484Z,100689.06
2019-03-15T11:11:05.147Z,100682.58
2019-03-15T11:13:56.453Z,100680.45
2019-03-15T11:16:48.153Z,100689.80
2019-03-15T11:19:39.940Z,100690.30
2019-03-15T11:22:31.851Z,100692.86
2019-03-15T11:25:23.668Z,100681.20
2019-03-15T11:28:16.069Z,100692.22
2019-03-15T11:31:07.539Z,100691.50
2019-03-15T11:33:58.890Z,100704.08
2019-03-15T11:36:58.240Z,100707.47
2019-03-15T11:39:44.457Z,100703.09
2019-03-15T11:42:35.892Z,100706.83
2019-03-15T11:45:27.551Z,100698.39
2019-03-15T11:48:19.006Z,100695.14
2019-03-15T11:51:10.662Z,100697.42
2019-03-15T11:54:01.993Z,100693.80
2019-03-15T11:56:53.281Z,100689.33
2019-03-15T11:59:44.965Z,100698.14
2019-03-15T12:02:36.437Z,100698.15
2019-03-15T12:05:28.038Z,100701.91
2019-03-15T12:08:19.793Z,100701.42
2019-03-15T12:11:11.882Z,100699.73
2019-03-15T12:14:03.541Z,100702.69
2019-03-15T12:16:55.479Z,100723.62
2019-03-15T12:19:47.098Z,100713.48
2019-03-15T12:22:38.900Z,100705.73
2019-03-15T12:25:31.491Z,100701.89
2019-03-15T12:28:22.932Z,100707.83
2019-03-15T12:31:14.212Z,100698.77
2019-03-15T12:34:05.730Z,100721.88
2019-03-15T12:36:57.127Z,100715.47
2019-03-15T12:39:48.769Z,100720.52
2019-03-15T12:42:40.213Z,100726.84
2019-03-15T12:45:31.569Z,100731.39
2019-03-15T12:48:23.130Z,100725.98
2019-03-15T12:51:14.993Z,100694.00
2019-03-15T12:54:06.713Z,100680.73
2019-03-15T12:56:58.697Z,100682.54
2019-03-15T12:59:50.091Z,100700.34
2019-03-15T13:02:41.505Z,100691.64
2019-03-15T13:05:33.274Z,100688.06
2019-03-15T13:08:24.973Z,100698.75
2019-03-15T13:11:16.668Z,100700.38
2019-03-15T13:14:08.085Z,100703.23
2019-03-15T13:16:59.587Z,100724.33
2019-03-15T13:19:55.310Z,100721.81
2019-03-15T13:22:43.971Z,100719.69
2019-03-15T13:25:35.495Z,100720.78
2019-03-15T13:28:27.123Z,100714.95
2019-03-15T13:31:18.489Z,100716.39
2019-03-15T13:34:10.954Z,100715.55
2019-03-15T13:37:02.489Z,100724.05
2019-03-15T13:39:54.913Z,100715.41
2019-03-15T13:42:46.386Z,100716.81
2019-03-15T13:45:38.172Z,100727.61
2019-03-15T13:48:29.793Z,100719.69
2019-03-15T13:51:22.701Z,100723.08
2019-03-15T13:54:14.386Z,100699.30
2019-03-15T13:57:06.002Z,100690.23
2019-03-15T13:59:57.478Z,100679.25
2019-03-15T14:02:49.264Z,100689.27
2019-03-15T14:05:41.172Z,100696.55
2019-03-15T14:08:32.852Z,100698.25
2019-03-15T14:11:24.232Z,100708.08
2019-03-15T14:14:15.681Z,100711.77
2019-03-15T14:17:07.168Z,100716.03
2019-03-15T14:19:58.624Z,100723.31
2019-03-15T14:22:50.386Z,100730.19
2019-03-15T14:25:41.880Z,100736.53
2019-03-15T14:28:34.380Z,100730.64
2019-03-15T14:31:26.124Z,100734.91
2019-03-15T14:34:17.589Z,100733.95
2019-03-15T14:37:10.414Z,100729.16
2019-03-15T14:40:02.712Z,100729.28
2019-03-15T14:42:54.541Z,100726.88
2019-03-15T14:45:46.451Z,100730.22
2019-03-15T14:48:37.923Z,100718.77
2019-03-15T14:51:29.744Z,100730.27
2019-03-15T14:54:21.899Z,100728.25
2019-03-15T14:57:14.026Z,100727.13
2019-03-15T15:00:11.044Z,100733.83
2019-03-15T15:03:01.897Z,100739.55
2019-03-15T15:05:53.560Z,100743.80
2019-03-15T15:08:44.990Z,100750.69
2019-03-15T15:11:36.717Z,100741.80
2019-03-15T15:14:28.145Z,100738.69
2019-03-15T15:17:20.366Z,100737.77
2019-03-15T15:20:12.215Z,100741.14
2019-03-15T15:23:03.638Z,100729.89
2019-03-15T15:25:56.116Z,100727.77
2019-03-15T15:28:47.771Z,100727.66
2019-03-15T15:31:39.091Z,100729.04
2019-03-15T15:34:30.772Z,100731.59
2019-03-15T15:37:22.077Z,100719.77
2019-03-15T15:40:14.459Z,100714.59
2019-03-15T15:43:05.865Z,100714.65
2019-03-15T15:45:58.264Z,100719.61
2019-03-15T15:48:49.720Z,100722.58
2019-03-15T15:51:41.118Z,100718.89
2019-03-15T15:54:32.744Z,100709.48
2019-03-15T15:57:24.371Z,100716.35
2019-03-15T16:00:15.806Z,100718.53
2019-03-15T16:03:07.577Z,100713.69
2019-03-15T16:05:59.123Z,100718.58
2019-03-15T16:08:50.777Z,100730.09
2019-03-15T16:11:42.167Z,100711.04
2019-03-15T16:14:33.587Z,100717.54
2019-03-15T16:17:25.408Z,100711.74
2019-03-15T16:20:17.922Z,100705.50
2019-03-15T16:23:09.560Z,100700.86
2019-03-15T16:26:01.233Z,100706.55
2019-03-15T16:28:52.995Z,100704.64
2019-03-15T16:31:46.018Z,100718.13
2019-03-15T16:34:37.466Z,100713.39
2019-03-15T16:37:29.133Z,100714.95
2019-03-15T16:40:20.682Z,100708.95
2019-03-15T16:43:12.483Z,100726.20
2019-03-15T16:46:04.334Z,100729.08
2019-03-15T16:48:55.772Z,100737.33
2019-03-15T16:51:47.590Z,100740.23
2019-03-15T16:54:39.378Z,100738.72
2019-03-15T16:57:31.243Z,100737.70
2019-03-15T17:00:23.042Z,100752.82
2019-03-15T17:03:14.817Z,100744.50
2019-03-15T17:06:06.535Z,100766.08
2019-03-15T17:08:58.083Z,100766.78
2019-03-15T17:11:49.941Z,100778.77
2019-03-15T17:14:41.980Z,100769.09
2019-03-15T17:17:33.910Z,100769.56
2019-03-15T17:20:25.766Z,100771.59
2019-03-15T17:23:17.539Z,100780.84
2019-03-15T17:26:09.289Z,100798.64
2019-03-15T17:29:01.343Z,100798.89
2019-03-15T17:31:53.100Z,100789.49
2019-03-15T17:34:44.692Z,100797.05
2019-03-15T17:37:36.330Z,100802.79
2019-03-15T17:40:27.813Z,100806.03
2019-03-15T17:43:19.541Z,100820.63
2019-03-15T17:46:12.937Z,100823.66
2019-03-15T17:49:04.914Z,100824.61
2019-03-15T17:51:56.724Z,100825.58
2019-03-15T17:54:48.446Z,100827.17
2019-03-15T17:57:40.215Z,100837.06
2019-03-15T18:00:37.195Z,100844.16
2019-03-15T18:03:28.575Z,100850.44
2019-03-15T18:06:20.317Z,100859.27
2019-03-15T18:09:11.748Z,100863.25
2019-03-15T18:12:03.138Z,100865.98
2019-03-15T18:14:55.291Z,100873.71
2019-03-15T18:17:47.496Z,100875.82
2019-03-15T18:20:38.904Z,100871.46
2019-03-15T18:23:31.019Z,100883.96
2019-03-15T18:26:23.452Z,100878.52
2019-03-15T18:29:25.622Z,100875.27
2019-03-15T18:32:08.229Z,100884.26
2019-03-15T18:34:59.896Z,100872.75
2019-03-15T18:37:51.463Z,100878.08
2019-03-15T18:40:43.439Z,100872.55
2019-03-15T18:43:35.643Z,100880.50
2019-03-15T18:46:27.255Z,100881.61
2019-03-15T18:49:19.462Z,100897.27
2019-03-15T18:52:11.324Z,100892.45
2019-03-15T18:55:02.621Z,100892.78
2019-03-15T18:57:54.149Z,100902.05
2019-03-15T19:00:45.886Z,100895.28
2019-03-15T19:03:37.516Z,100902.80
2019-03-15T19:06:29.029Z,100897.22
2019-03-15T19:09:20.685Z,100904.14
2019-03-15T19:12:12.306Z,100903.02
2019-03-15T19:15:03.928Z,100906.27
2019-03-15T19:17:55.652Z,100913.88
2019-03-15T19:20:47.073Z,100914.23
2019-03-15T19:23:38.529Z,100926.53
2019-03-15T19:26:30.759Z,100927.53
2019-03-15T19:29:22.397Z,100933.29
2019-03-15T19:32:13.709Z,100939.94
2019-03-15T19:35:05.257Z,100944.08
2019-03-15T19:37:56.752Z,100944.98
2019-03-15T19:40:48.420Z,100948.98
2019-03-15T19:43:40.837Z,100940.41
2019-03-15T19:46:32.569Z,100956.45
2019-03-15T19:49:24.519Z,100955.60
2019-03-15T19:52:16.138Z,100948.53
2019-03-15T19:55:08.478Z,100953.75
2019-03-15T19:58:00.000Z,100966.46
2019-03-15T20:00:52.351Z,100962.89
2019-03-15T20:03:44.604Z,100968.44
2019-03-15T20:06:37.126Z,100977.86
2019-03-15T20:09:28.700Z,100974.80
2019-03-15T20:12:20.027Z,100985.34
2019-03-15T20:15:12.409Z,100988.11
2019-03-15T20:18:03.995Z,100994.28
2019-03-15T20:20:55.596Z,100983.90
2019-03-15T20:23:47.288Z,100998.17
2019-03-15T20:26:40.054Z,101000.51
2019-03-15T20:29:31.430Z,100993.48
2019-03-15T20:32:22.902Z,101008.55
2019-03-15T20:35:14.522Z,101008.36
2019-03-15T20:38:06.209Z,101004.27
2019-03-15T20:40:58.465Z,101006.02
2019-03-15T20:43:50.200Z,101008.04
2019-03-15T20:46:41.889Z,101014.62
2019-03-15T20:49:36.307Z,101016.50
2019-03-15T20:52:26.493Z,101001.76
2019-03-15T20:55:17.976Z,101019.45
2019-03-15T20:58:09.632Z,101019.43
2019-03-15T21:01:01.355Z,101020.48
2019-03-15T21:03:56.358Z,101020.20
2019-03-15T21:06:45.568Z,101028.60
2019-03-15T21:09:37.943Z,101042.05
2019-03-15T21:12:29.584Z,101041.38
2019-03-15T21:15:21.319Z,101044.55
2019-03-15T21:18:13.153Z,101057.83
2019-03-15T21:21:04.464Z,101060.59
2019-03-15T21:23:56.296Z,101061.86
2019-03-15T21:26:47.743Z,101062.79
2019-03-15T21:29:39.265Z,101066.17
2019-03-15T21:32:31.677Z,101074.44
2019-03-15T21:35:23.253Z,101077.33
2019-03-15T21:38:14.818Z,101072.58
2019-03-15T21:41:06.292Z,101077.23
2019-03-15T21:43:58.011Z,101072.42
2019-03-15T21:46:49.732Z,101069.44
2019-03-15T21:49:42.601Z,101070.31
2019-03-15T21:52:34.855Z,101087.56
2019-03-15T21:55:26.547Z,101083.11
2019-03-15T21:58:17.981Z,101079.59
2019-03-15T22:01:09.406Z,101080.55
2019-03-15T22:04:00.989Z,101075.91
2019-03-15T22:06:52.737Z,101078.49
2019-03-15T22:09:44.528Z,101078.05
2019-03-15T22:12:36.466Z,101076.65
2019-03-15T22:15:28.323Z,101076.77
2019-03-15T22:18:20.158Z,101091.37
2019-03-15T22:21:11.641Z,101092.78
2019-03-15T22:24:03.194Z,101101.55
2019-03-15T22:26:55.185Z,101112.73
2019-03-15T22:29:53.487Z,101116.44
2019-03-15T22:32:41.181Z,101116.28
2019-03-15T22:35:32.834Z,101110.84
2019-03-15T22:38:26.611Z,101117.15
2019-03-15T22:41:17.695Z,101119.31
2019-03-15T22:44:09.144Z,101119.00
2019-03-15T22:47:00.771Z,101121.55
2019-03-15T22:49:52.499Z,101128.72
2019-03-15T22:52:44.052Z,101126.20
2019-03-15T22:55:35.647Z,101122.00
2019-03-15T22:58:27.195Z,101117.12
2019-03-15T23:01:29.575Z,101121.01
2019-03-15T23:04:11.694Z,101121.20
2019-03-15T23:07:03.125Z,101128.78
2019-03-15T23:09:55.483Z,101136.27
2019-03-15T23:12:47.196Z,101133.50
2019-03-15T23:15:38.591Z,101136.78
2019-03-15T23:18:30.827Z,101125.72
2019-03-15T23:21:22.460Z,101128.18
2019-03-15T23:24:13.848Z,101132.28
2019-03-15T23:27:05.391Z,101126.97
2019-03-15T23:29:57.113Z,101121.83
2019-03-15T23:32:48.895Z,101124.70
2019-03-15T23:35:53.381Z,101131.39
2019-03-15T23:38:33.654Z,101131.75
2019-03-15T23:41:25.301Z,101129.74
2019-03-15T23:44:17.531Z,101134.23
2019-03-15T23:47:09.178Z,101127.06
2019-03-15T23:50:01.743Z,101127.89
2019-03-15T23:52:53.310Z,101127.12
2019-03-15T23:55:44.707Z,101124.39
2019-03-15T23:58:36.541Z,101128.09
